createdAt,value
2023-02-16T00:03:58.043Z,3.84
2023-02-16T00:08:59.734Z,3.87
2023-02-16T00:14:01.783Z,3.84
2023-02-16T00:19:17.446Z,3.79
2023-02-16T00:24:19.084Z,3.78
2023-02-16T00:29:34.136Z,3.71
2023-02-16T00:34:38.529Z,3.53
2023-02-16T00:39:42.265Z,3.54
2023-02-16T00:44:46.807Z,3.65
2023-02-16T00:49:50.618Z,3.57
2023-02-16T00:54:52.192Z,3.43
2023-02-16T01:00:16.751Z,3.41
2023-02-16T01:05:19.181Z,3.51
2023-02-16T01:10:20.845Z,3.37
2023-02-16T01:15:25.864Z,3.12
2023-02-16T01:20:28.326Z,3.05
2023-02-16T01:25:30.022Z,3.10
2023-02-16T01:30:31.776Z,3.07
2023-02-16T01:35:34.305Z,2.96
2023-02-16T01:40:42.699Z,3.06
2023-02-16T01:45:51.033Z,2.87
2023-02-16T01:51:26.518Z,2.61
2023-02-16T01:56:36.663Z,2.66
2023-02-16T02:02:11.810Z,2.77
2023-02-16T02:07:28.863Z,2.69
2023-02-16T02:12:58.216Z,2.56
2023-02-16T02:18:01.334Z,2.45
2023-02-16T02:23:09.020Z,2.51
2023-02-16T02:28:28.418Z,2.67
2023-02-16T02:33:47.799Z,2.76
2023-02-16T02:39:16.135Z,2.82
2023-02-16T02:44:25.035Z,2.93
2023-02-16T02:49:26.644Z,2.80
2023-02-16T02:54:32.181Z,2.75
2023-02-16T02:59:41.017Z,2.75
2023-02-16T03:04:46.650Z,2.36
2023-02-16T03:09:50.587Z,2.29
2023-02-16T03:14:56.151Z,2.47
2023-02-16T03:19:59.506Z,2.51
2023-02-16T03:25:01.028Z,2.41
2023-02-16T03:30:05.706Z,2.27
2023-02-16T03:35:07.893Z,2.36
2023-02-16T03:40:13.243Z,2.17
2023-02-16T03:45:14.834Z,2.19
2023-02-16T03:50:16.986Z,2.16
2023-02-16T03:55:18.872Z,2.04
2023-02-16T04:00:20.646Z,1.93
2023-02-16T04:05:25.874Z,1.82
2023-02-16T04:10:27.703Z,1.81
2023-02-16T04:15:30.879Z,1.64
2023-02-16T04:20:33.679Z,1.88
2023-02-16T04:25:35.387Z,2.05
2023-02-16T04:30:37.055Z,1.97
2023-02-16T04:35:38.637Z,1.89
2023-02-16T04:40:40.204Z,1.64
2023-02-16T04:45:41.792Z,1.53
2023-02-16T04:50:43.316Z,1.59
2023-02-16T04:55:49.186Z,1.80
2023-02-16T05:00:50.784Z,1.85
2023-02-16T05:05:52.302Z,1.85
2023-02-16T05:10:53.804Z,1.75
2023-02-16T05:15:56.490Z,1.86
2023-02-16T05:20:58.084Z,1.81
2023-02-16T05:25:59.595Z,1.88
2023-02-16T05:31:01.085Z,1.90
2023-02-16T05:36:02.714Z,1.83
2023-02-16T05:41:04.911Z,1.81
2023-02-16T05:46:08.684Z,1.82
2023-02-16T05:51:10.294Z,1.83
2023-02-16T05:56:12.044Z,1.85
2023-02-16T06:01:14.527Z,1.77
2023-02-16T06:06:16.495Z,1.80
2023-02-16T06:11:17.986Z,1.85
2023-02-16T06:16:19.671Z,1.88
2023-02-16T06:21:22.213Z,1.88
2023-02-16T06:26:23.732Z,1.83
2023-02-16T06:31:26.281Z,1.89
2023-02-16T06:36:28.061Z,1.90
2023-02-16T06:41:29.676Z,2.05
2023-02-16T06:46:31.698Z,2.12
2023-02-16T06:51:33.647Z,2.25
2023-02-16T06:56:37.662Z,2.49
2023-02-16T07:01:39.454Z,2.64
2023-02-16T07:06:41.203Z,2.80
2023-02-16T07:11:42.866Z,3.03
2023-02-16T07:16:44.504Z,3.08
2023-02-16T07:21:46.066Z,3.39
2023-02-16T07:26:47.737Z,3.57
2023-02-16T07:31:49.488Z,3.90
2023-02-16T07:36:51.226Z,3.98
2023-02-16T07:41:52.806Z,4.08
2023-02-16T07:46:54.491Z,4.12
2023-02-16T07:51:56.020Z,4.31
2023-02-16T07:56:57.579Z,4.29
2023-02-16T08:02:00.536Z,4.14
2023-02-16T08:07:02.281Z,4.25
2023-02-16T08:12:03.900Z,4.43
2023-02-16T08:17:07.614Z,4.59
2023-02-16T08:22:09.334Z,4.91
2023-02-16T08:27:11.418Z,5.20
2023-02-16T08:32:13.719Z,5.23
2023-02-16T08:37:15.264Z,5.27
2023-02-16T08:42:16.902Z,5.33
2023-02-16T08:47:18.837Z,5.65
2023-02-16T08:52:20.402Z,5.56
2023-02-16T08:57:22.049Z,5.67
2023-02-16T09:02:23.763Z,5.79
2023-02-16T09:07:25.433Z,6.00
2023-02-16T09:12:27.007Z,6.37
2023-02-16T09:17:28.978Z,6.89
2023-02-16T09:22:30.507Z,6.84
2023-02-16T09:27:32.053Z,6.80
2023-02-16T09:32:33.614Z,6.77
2023-02-16T09:37:35.278Z,7.27
2023-02-16T09:43:00.311Z,8.07
2023-02-16T09:48:02.136Z,8.66
2023-02-16T09:53:19.439Z,9.77
2023-02-16T09:58:25.771Z,10.30
2023-02-16T10:03:27.452Z,10.39
2023-02-16T10:08:34.295Z,10.34
2023-02-16T10:13:35.745Z,10.82
2023-02-16T10:18:40.123Z,10.07
2023-02-16T10:23:56.658Z,10.11
2023-02-16T10:29:03.212Z,9.94
2023-02-16T10:34:27.780Z,9.91
2023-02-16T10:39:32.189Z,9.91
2023-02-16T10:44:39.152Z,10.24
2023-02-16T10:49:40.972Z,10.43
2023-02-16T10:54:42.601Z,10.75
2023-02-16T10:59:46.367Z,10.81
2023-02-16T11:04:50.498Z,10.76
2023-02-16T11:09:54.227Z,11.15
2023-02-16T11:15:22.216Z,11.90
2023-02-16T11:20:50.553Z,11.66
2023-02-16T11:26:10.311Z,11.52
2023-02-16T11:31:30.641Z,11.37
2023-02-16T11:36:36.986Z,11.30
2023-02-16T11:42:03.445Z,11.48
2023-02-16T11:47:27.955Z,11.95
2023-02-16T11:52:30.532Z,11.66
2023-02-16T11:57:35.919Z,11.38
2023-02-16T12:03:03.931Z,11.64
2023-02-16T12:08:24.679Z,11.38
2023-02-16T12:13:49.633Z,11.15
2023-02-16T12:19:28.340Z,11.18
2023-02-16T12:24:47.004Z,10.96
2023-02-16T12:30:12.924Z,10.83
2023-02-16T12:35:42.748Z,11.05
2023-02-16T12:41:10.177Z,11.29
2023-02-16T12:46:23.850Z,11.54
2023-02-16T12:51:32.555Z,11.56
2023-02-16T12:56:47.926Z,11.62
2023-02-16T13:01:55.230Z,11.78
2023-02-16T13:07:05.146Z,12.09
2023-02-16T13:12:25.487Z,12.26
2023-02-16T13:17:49.931Z,12.28
2023-02-16T13:23:03.332Z,12.21
2023-02-16T13:28:42.111Z,12.16
2023-02-16T13:33:50.119Z,12.47
2023-02-16T13:39:36.296Z,12.36
2023-02-16T13:44:55.482Z,11.88
2023-02-16T13:50:02.849Z,11.91
2023-02-16T13:55:08.562Z,11.88
2023-02-16T14:00:30.978Z,11.87
2023-02-16T14:05:35.532Z,12.00
2023-02-16T14:10:52.061Z,12.12
2023-02-16T14:15:56.556Z,12.21
2023-02-16T14:21:07.025Z,12.20
2023-02-16T14:26:10.136Z,12.40
2023-02-16T14:31:16.784Z,12.11
2023-02-16T14:36:20.294Z,12.17
2023-02-16T14:41:33.868Z,12.19
2023-02-16T14:46:59.992Z,12.24
2023-02-16T14:52:19.848Z,12.30
2023-02-16T14:57:52.928Z,12.38
2023-02-16T15:03:17.588Z,12.94
2023-02-16T15:08:22.106Z,13.05
2023-02-16T15:13:28.772Z,13.05
2023-02-16T15:18:39.760Z,13.28
2023-02-16T15:23:48.977Z,13.25
2023-02-16T15:28:53.765Z,13.08
2023-02-16T15:33:58.263Z,12.84
2023-02-16T15:39:03.019Z,12.64
2023-02-16T15:44:07.029Z,12.59
2023-02-16T15:49:21.656Z,12.25
2023-02-16T15:54:32.014Z,11.98
2023-02-16T15:59:35.380Z,11.83
2023-02-16T16:04:40.773Z,11.55
2023-02-16T16:09:43.601Z,11.31
2023-02-16T16:14:57.290Z,11.06
2023-02-16T16:20:24.331Z,10.98
2023-02-16T16:25:39.760Z,10.92
2023-02-16T16:30:41.468Z,10.70
2023-02-16T16:35:46.107Z,10.40
2023-02-16T16:40:53.447Z,10.50
2023-02-16T16:46:25.677Z,11.02
2023-02-16T16:51:36.407Z,11.26
2023-02-16T16:56:40.417Z,11.76
2023-02-16T17:01:41.998Z,12.03
2023-02-16T17:06:43.639Z,12.04
2023-02-16T17:11:45.206Z,11.95
2023-02-16T17:16:49.379Z,11.63
2023-02-16T17:21:50.921Z,11.22
2023-02-16T17:26:52.774Z,10.86
2023-02-16T17:31:54.361Z,10.93
2023-02-16T17:37:00.973Z,10.69
2023-02-16T17:42:02.688Z,10.60
2023-02-16T17:47:04.328Z,10.63
2023-02-16T17:52:10.894Z,10.82
2023-02-16T17:57:13.011Z,10.89
2023-02-16T18:02:14.599Z,10.82
2023-02-16T18:07:18.038Z,10.63
2023-02-16T18:12:19.540Z,10.52
2023-02-16T18:17:21.153Z,10.46
2023-02-16T18:22:22.850Z,10.54
2023-02-16T18:27:24.390Z,10.65
2023-02-16T18:32:26.016Z,10.77
2023-02-16T18:37:27.607Z,10.79
2023-02-16T18:42:29.221Z,10.75
2023-02-16T18:47:30.877Z,10.77
2023-02-16T18:52:32.777Z,10.72
2023-02-16T18:57:34.481Z,10.74
2023-02-16T19:02:36.195Z,10.56
2023-02-16T19:07:37.951Z,10.71
2023-02-16T19:12:40.204Z,11.05
2023-02-16T19:17:42.127Z,11.30
2023-02-16T19:22:48.438Z,11.25
2023-02-16T19:27:50.059Z,11.38
2023-02-16T19:32:51.885Z,11.37
2023-02-16T19:37:53.514Z,11.51
2023-02-16T19:42:55.097Z,11.64
2023-02-16T19:47:56.683Z,11.65
2023-02-16T19:52:58.229Z,11.64
2023-02-16T19:57:59.891Z,11.60
2023-02-16T20:03:01.562Z,11.52
2023-02-16T20:08:03.237Z,11.47
2023-02-16T20:13:04.775Z,11.57
2023-02-16T20:18:06.347Z,11.47
2023-02-16T20:23:07.913Z,11.57
2023-02-16T20:28:09.505Z,11.53
2023-02-16T20:33:11.152Z,11.42
2023-02-16T20:38:13.896Z,11.44
2023-02-16T20:43:15.412Z,11.45
2023-02-16T20:48:17.066Z,11.29
2023-02-16T20:53:18.774Z,11.04
2023-02-16T20:58:20.290Z,10.82
2023-02-16T21:03:21.858Z,10.47
2023-02-16T21:08:27.029Z,10.12
2023-02-16T21:13:28.702Z,9.95
2023-02-16T21:18:30.507Z,9.92
2023-02-16T21:23:32.198Z,9.91
2023-02-16T21:28:33.795Z,9.93
2023-02-16T21:33:36.320Z,9.95
2023-02-16T21:38:39.622Z,9.98
2023-02-16T21:43:41.278Z,10.02
2023-02-16T21:48:42.824Z,10.03
2023-02-16T21:53:45.270Z,10.06
2023-02-16T21:58:47.008Z,10.03
2023-02-16T22:03:48.634Z,10.06
2023-02-16T22:08:50.188Z,10.13
2023-02-16T22:13:56.741Z,10.17
2023-02-16T22:19:07.658Z,10.17
2023-02-16T22:24:12.531Z,10.11
2023-02-16T22:29:14.257Z,10.21
2023-02-16T22:34:20.582Z,10.83
2023-02-16T22:39:22.252Z,11.31
2023-02-16T22:44:24.192Z,11.64
2023-02-16T22:49:27.355Z,11.75
2023-02-16T22:54:28.980Z,11.78
2023-02-16T22:59:30.654Z,11.83
2023-02-16T23:04:32.233Z,11.83
2023-02-16T23:09:33.806Z,11.96
2023-02-16T23:14:38.424Z,11.99
2023-02-16T23:19:40.113Z,11.83
2023-02-16T23:24:41.685Z,11.81
2023-02-16T23:29:43.276Z,11.78
2023-02-16T23:34:45.887Z,11.85
2023-02-16T23:39:47.384Z,11.94
2023-02-16T23:44:48.919Z,12.03
2023-02-16T23:49:50.506Z,12.10
2023-02-16T23:54:52.050Z,12.14
2023-02-16T23:59:53.659Z,12.24
